sensor_id;sensor_type;location;lat;lon;timestamp;pressure;altitude;pressure_sealevel;temperature
13497;BMP180;6820;49.374;8.452;2023-08-06T00:01:28;99676.03;;;25.43
13497;BMP180;6820;49.374;8.452;2023-08-06T00:05:30;99669.13;;;25.40
13497;BMP180;6820;49.374;8.452;2023-08-06T00:09:32;99661.28;;;25.45
13497;BMP180;6820;49.374;8.452;2023-08-06T00:13:34;99648.31;;;25.46
13497;BMP180;6820;49.374;8.452;2023-08-06T00:17:35;99653.53;;;25.43
13497;BMP180;6820;49.374;8.452;2023-08-06T00:21:37;99642.28;;;25.40
13497;BMP180;6820;49.374;8.452;2023-08-06T00:25:40;99646.63;;;25.41
13497;BMP180;6820;49.374;8.452;2023-08-06T00:29:42;99634.47;;;25.46
13497;BMP180;6820;49.374;8.452;2023-08-06T00:33:43;99629.28;;;25.46
13497;BMP180;6820;49.374;8.452;2023-08-06T00:37:45;99620.63;;;25.45
13497;BMP180;6820;49.374;8.452;2023-08-06T00:41:47;99618.88;;;25.47
13497;BMP180;6820;49.374;8.452;2023-08-06T00:45:49;99619.72;;;25.48
13497;BMP180;6820;49.374;8.452;2023-08-06T00:49:51;99614.56;;;25.45
13497;BMP180;6820;49.374;8.452;2023-08-06T00:53:53;99613.75;;;25.40
13497;BMP180;6820;49.374;8.452;2023-08-06T00:57:55;99605.16;;;25.37
13497;BMP180;6820;49.374;8.452;2023-08-06T01:01:58;99608.66;;;25.31
13497;BMP180;6820;49.374;8.452;2023-08-06T01:06:00;99597.50;;;25.25
13497;BMP180;6820;49.374;8.452;2023-08-06T01:10:19;99588.09;;;25.15
13497;BMP180;6820;49.374;8.452;2023-08-06T01:18:38;99583.94;;;24.95
13497;BMP180;6820;49.374;8.452;2023-08-06T01:22:40;99584.84;;;24.92
13497;BMP180;6820;49.374;8.452;2023-08-06T01:26:45;99565.03;;;24.87
13497;BMP180;6820;49.374;8.452;2023-08-06T01:30:50;99564.19;;;24.79
13497;BMP180;6820;49.374;8.452;2023-08-06T01:34:52;99561.66;;;24.72
13497;BMP180;6820;49.374;8.452;2023-08-06T01:38:56;99560.03;;;24.60
13497;BMP180;6820;49.374;8.452;2023-08-06T01:42:59;99558.34;;;24.52
13497;BMP180;6820;49.374;8.452;2023-08-06T01:47:01;99552.31;;;24.51
13497;BMP180;6820;49.374;8.452;2023-08-06T01:51:06;99554.84;;;24.57
13497;BMP180;6820;49.374;8.452;2023-08-06T01:55:08;99564.34;;;24.61
13497;BMP180;6820;49.374;8.452;2023-08-06T01:59:09;99561.72;;;24.63
13497;BMP180;6820;49.374;8.452;2023-08-06T02:03:11;99559.94;;;24.68
13497;BMP180;6820;49.374;8.452;2023-08-06T02:07:13;99566.81;;;24.73
13497;BMP180;6820;49.374;8.452;2023-08-06T02:11:14;99569.38;;;24.79
13497;BMP180;6820;49.374;8.452;2023-08-06T02:15:16;99572.81;;;24.82
13497;BMP180;6820;49.374;8.452;2023-08-06T02:19:18;99563.28;;;24.83
13497;BMP180;6820;49.374;8.452;2023-08-06T02:23:20;99563.31;;;24.80
13497;BMP180;6820;49.374;8.452;2023-08-06T02:27:22;99556.41;;;24.80
13497;BMP180;6820;49.374;8.452;2023-08-06T02:31:24;99549.53;;;24.75
13497;BMP180;6820;49.374;8.452;2023-08-06T02:35:25;99545.25;;;24.68
13497;BMP180;6820;49.374;8.452;2023-08-06T02:39:27;99541.03;;;24.58
13497;BMP180;6820;49.374;8.452;2023-08-06T02:43:29;99536.78;;;24.53
13497;BMP180;6820;49.374;8.452;2023-08-06T02:47:30;99537.72;;;24.42
13497;BMP180;6820;49.374;8.452;2023-08-06T02:51:33;99525.72;;;24.29
13497;BMP180;6820;49.374;8.452;2023-08-06T02:55:35;99530.09;;;24.16
13497;BMP180;6820;49.374;8.452;2023-08-06T02:59:42;99537.06;;;24.07
13497;BMP180;6820;49.374;8.452;2023-08-06T03:03:50;99529.34;;;23.97
13497;BMP180;6820;49.374;8.452;2023-08-06T03:07:59;99522.50;;;23.88
13497;BMP180;6820;49.374;8.452;2023-08-06T03:12:03;99529.44;;;23.84
13497;BMP180;6820;49.374;8.452;2023-08-06T03:16:06;99530.28;;;23.88
13497;BMP180;6820;49.374;8.452;2023-08-06T03:20:08;99521.53;;;24.01
13497;BMP180;6820;49.374;8.452;2023-08-06T03:24:10;99518.03;;;24.11
13497;BMP180;6820;49.374;8.452;2023-08-06T03:28:15;99522.31;;;24.16
13497;BMP180;6820;49.374;8.452;2023-08-06T03:32:17;99518.00;;;24.26
13497;BMP180;6820;49.374;8.452;2023-08-06T03:36:20;99520.53;;;24.32
13497;BMP180;6820;49.374;8.452;2023-08-06T03:40:24;99517.88;;;24.38
13497;BMP180;6820;49.374;8.452;2023-08-06T03:44:27;99517.84;;;24.41
13497;BMP180;6820;49.374;8.452;2023-08-06T03:48:29;99520.44;;;24.45
13497;BMP180;6820;49.374;8.452;2023-08-06T03:52:32;99516.09;;;24.44
13497;BMP180;6820;49.374;8.452;2023-08-06T03:56:34;99521.31;;;24.43
13497;BMP180;6820;49.374;8.452;2023-08-06T04:00:35;99518.72;;;24.41
13497;BMP180;6820;49.374;8.452;2023-08-06T04:04:37;99523.06;;;24.39
13497;BMP180;6820;49.374;8.452;2023-08-06T04:08:39;99520.47;;;24.38
13497;BMP180;6820;49.374;8.452;2023-08-06T04:12:41;99529.09;;;24.40
13497;BMP180;6820;49.374;8.452;2023-08-06T04:16:43;99521.34;;;24.37
13497;BMP180;6820;49.374;8.452;2023-08-06T04:20:48;99516.19;;;24.35
13497;BMP180;6820;49.374;8.452;2023-08-06T04:24:51;99509.31;;;24.31
13497;BMP180;6820;49.374;8.452;2023-08-06T04:28:52;99511.03;;;24.31
13497;BMP180;6820;49.374;8.452;2023-08-06T04:32:56;99508.44;;;24.31
13497;BMP180;6820;49.374;8.452;2023-08-06T04:37:00;99507.56;;;24.30
13497;BMP180;6820;49.374;8.452;2023-08-06T04:41:02;99513.59;;;24.31
13497;BMP180;6820;49.374;8.452;2023-08-06T04:45:05;99512.75;;;24.32
13497;BMP180;6820;49.374;8.452;2023-08-06T04:49:07;99507.56;;;24.35
13497;BMP180;6820;49.374;8.452;2023-08-06T04:53:09;99514.47;;;24.34
13497;BMP180;6820;49.374;8.452;2023-08-06T04:57:11;99527.44;;;24.30
13497;BMP180;6820;49.374;8.452;2023-08-06T05:01:12;99522.28;;;24.25
13497;BMP180;6820;49.374;8.452;2023-08-06T05:05:14;99531.81;;;24.22
13497;BMP180;6820;49.374;8.452;2023-08-06T05:09:16;99524.06;;;24.16
13497;BMP180;6820;49.374;8.452;2023-08-06T05:13:17;99531.84;;;24.20
13497;BMP180;6820;49.374;8.452;2023-08-06T05:17:19;99531.84;;;24.20
13497;BMP180;6820;49.374;8.452;2023-08-06T05:21:20;99526.63;;;24.17
13497;BMP180;6820;49.374;8.452;2023-08-06T05:25:22;99537.03;;;24.20
13497;BMP180;6820;49.374;8.452;2023-08-06T05:29:24;99521.44;;;24.22
13497;BMP180;6820;49.374;8.452;2023-08-06T05:33:25;99526.66;;;24.19
13497;BMP180;6820;49.374;8.452;2023-08-06T05:37:27;99525.78;;;24.20
13497;BMP180;6820;49.374;8.452;2023-08-06T05:41:29;99520.63;;;24.18
13497;BMP180;6820;49.374;8.452;2023-08-06T05:45:30;99528.34;;;24.17
13497;BMP180;6820;49.374;8.452;2023-08-06T05:49:32;99528.38;;;24.20
13497;BMP180;6820;49.374;8.452;2023-08-06T05:53:33;99534.38;;;24.25
13497;BMP180;6820;49.374;8.452;2023-08-06T05:57:35;99537.78;;;24.30
13497;BMP180;6820;49.374;8.452;2023-08-06T06:01:37;99533.53;;;24.24
13497;BMP180;6820;49.374;8.452;2023-08-06T06:05:38;99542.13;;;24.29
13497;BMP180;6820;49.374;8.452;2023-08-06T06:09:40;99542.09;;;24.31
13497;BMP180;6820;49.374;8.452;2023-08-06T06:13:42;99536.88;;;24.38
13497;BMP180;6820;49.374;8.452;2023-08-06T06:17:43;99533.34;;;24.46
13497;BMP180;6820;49.374;8.452;2023-08-06T06:21:45;99542.84;;;24.49
13497;BMP180;6820;49.374;8.452;2023-08-06T06:25:48;99550.59;;;24.50
13497;BMP180;6820;49.374;8.452;2023-08-06T06:29:50;99551.47;;;24.52
13497;BMP180;6820;49.374;8.452;2023-08-06T06:33:53;99554.81;;;24.62
13497;BMP180;6820;49.374;8.452;2023-08-06T06:37:55;99561.63;;;24.73
13497;BMP180;6820;49.374;8.452;2023-08-06T06:41:57;99565.03;;;24.81
13497;BMP180;6820;49.374;8.452;2023-08-06T06:46:06;99560.75;;;24.77
13497;BMP180;6820;49.374;8.452;2023-08-06T06:50:08;99562.50;;;24.75
13497;BMP180;6820;49.374;8.452;2023-08-06T06:54:09;99559.03;;;24.75
13497;BMP180;6820;49.374;8.452;2023-08-06T06:58:11;99566.75;;;24.86
13497;BMP180;6820;49.374;8.452;2023-08-06T07:02:13;99562.22;;;25.08
13497;BMP180;6820;49.374;8.452;2023-08-06T07:06:14;99562.94;;;25.21
13497;BMP180;6820;49.374;8.452;2023-08-06T07:10:17;99562.94;;;25.24
13497;BMP180;6820;49.374;8.452;2023-08-06T07:14:18;99558.53;;;25.31
13497;BMP180;6820;49.374;8.452;2023-08-06T07:18:20;99550.56;;;25.47
13497;BMP180;6820;49.374;8.452;2023-08-06T07:22:22;99553.00;;;25.63
13497;BMP180;6820;49.374;8.452;2023-08-06T07:26:23;99546.69;;;25.83
13497;BMP180;6820;49.374;8.452;2023-08-06T07:30:25;99552.91;;;25.69
13497;BMP180;6820;49.374;8.452;2023-08-06T07:34:27;99560.06;;;25.52
13497;BMP180;6820;49.374;8.452;2023-08-06T07:38:29;99563.66;;;25.38
13497;BMP180;6820;49.374;8.452;2023-08-06T07:42:31;99561.13;;;25.31
13497;BMP180;6820;49.374;8.452;2023-08-06T07:46:33;99557.59;;;25.36
13497;BMP180;6820;49.374;8.452;2023-08-06T07:50:34;99555.72;;;25.54
13497;BMP180;6820;49.374;8.452;2023-08-06T07:54:36;99561.34;;;25.87
13497;BMP180;6820;49.374;8.452;2023-08-06T07:58:38;99560.19;;;26.09
13497;BMP180;6820;49.374;8.452;2023-08-06T08:02:39;99557.31;;;26.30
13497;BMP180;6820;49.374;8.452;2023-08-06T08:06:41;99553.66;;;26.42
13497;BMP180;6820;49.374;8.452;2023-08-06T08:10:43;99552.81;;;26.40
13497;BMP180;6820;49.374;8.452;2023-08-06T08:14:45;99552.81;;;26.42
13497;BMP180;6820;49.374;8.452;2023-08-06T08:18:46;99556.22;;;25.81
13497;BMP180;6820;49.374;8.452;2023-08-06T08:22:48;99553.16;;;25.50
13497;BMP180;6820;49.374;8.452;2023-08-06T08:26:51;99554.81;;;25.55
13497;BMP180;6820;49.374;8.452;2023-08-06T08:30:53;99553.06;;;25.57
13497;BMP180;6820;49.374;8.452;2023-08-06T08:34:55;99549.97;;;25.96
13497;BMP180;6820;49.374;8.452;2023-08-06T08:38:56;99533.81;;;26.37
13497;BMP180;6820;49.374;8.452;2023-08-06T08:43:01;99528.41;;;26.50
13497;BMP180;6820;49.374;8.452;2023-08-06T08:47:03;99523.34;;;26.43
13497;BMP180;6820;49.374;8.452;2023-08-06T08:51:06;99523.66;;;26.24
13497;BMP180;6820;49.374;8.452;2023-08-06T08:55:08;99531.59;;;26.67
13497;BMP180;6820;49.374;8.452;2023-08-06T08:59:10;99523.59;;;26.82
13497;BMP180;6820;49.374;8.452;2023-08-06T09:03:12;99532.63;;;26.59
13497;BMP180;6820;49.374;8.452;2023-08-06T09:07:18;99529.22;;;26.54
13497;BMP180;6820;49.374;8.452;2023-08-06T09:11:21;99529.06;;;26.64
13497;BMP180;6820;49.374;8.452;2023-08-06T09:15:26;99532.38;;;26.73
13497;BMP180;6820;49.374;8.452;2023-08-06T09:19:28;99519.31;;;26.78
13497;BMP180;6820;49.374;8.452;2023-08-06T09:23:30;99522.41;;;26.97
13497;BMP180;6820;49.374;8.452;2023-08-06T09:27:32;99519.69;;;27.05
13497;BMP180;6820;49.374;8.452;2023-08-06T09:31:54;99512.56;;;26.65
13497;BMP180;6820;49.374;8.452;2023-08-06T09:35:56;99528.63;;;26.37
13497;BMP180;6820;49.374;8.452;2023-08-06T09:39:58;99540.19;;;26.18
13497;BMP180;6820;49.374;8.452;2023-08-06T09:43:59;99551.00;;;25.83
13497;BMP180;6820;49.374;8.452;2023-08-06T09:48:05;99556.53;;;25.59
13497;BMP180;6820;49.374;8.452;2023-08-06T09:52:11;99556.53;;;25.58
13497;BMP180;6820;49.374;8.452;2023-08-06T09:56:13;99556.56;;;25.55
13497;BMP180;6820;49.374;8.452;2023-08-06T10:00:15;99565.06;;;25.67
13497;BMP180;6820;49.374;8.452;2023-08-06T10:04:20;99558.00;;;25.78
13497;BMP180;6820;49.374;8.452;2023-08-06T10:08:25;99558.66;;;25.95
13497;BMP180;6820;49.374;8.452;2023-08-06T10:12:29;99566.53;;;25.89
13497;BMP180;6820;49.374;8.452;2023-08-06T10:16:34;99567.50;;;25.80
13497;BMP180;6820;49.374;8.452;2023-08-06T10:20:36;99571.19;;;25.60
13497;BMP180;6820;49.374;8.452;2023-08-06T10:24:51;99567.06;;;25.43
13497;BMP180;6820;49.374;8.452;2023-08-06T10:28:53;99581.19;;;25.14
13497;BMP180;6820;49.374;8.452;2023-08-06T10:33:00;99571.91;;;24.86
13497;BMP180;6820;49.374;8.452;2023-08-06T10:37:02;99603.16;;;24.67
13497;BMP180;6820;49.374;8.452;2023-08-06T10:41:04;99604.97;;;24.53
13497;BMP180;6820;49.374;8.452;2023-08-06T10:45:18;99604.16;;;24.48
13497;BMP180;6820;49.374;8.452;2023-08-06T10:49:20;99621.53;;;24.30
13497;BMP180;6820;49.374;8.452;2023-08-06T10:53:22;99644.84;;;24.29
13497;BMP180;6820;49.374;8.452;2023-08-06T10:57:24;99638.84;;;24.24
13497;BMP180;6820;49.374;8.452;2023-08-06T11:01:30;99633.63;;;24.28
13497;BMP180;6820;49.374;8.452;2023-08-06T11:05:35;99642.31;;;24.23
13497;BMP180;6820;49.374;8.452;2023-08-06T11:09:37;99651.78;;;24.16
13497;BMP180;6820;49.374;8.452;2023-08-06T11:13:43;99654.38;;;24.19
13497;BMP180;6820;49.374;8.452;2023-08-06T11:17:47;99639.69;;;24.21
13497;BMP180;6820;49.374;8.452;2023-08-06T11:21:51;99663.81;;;24.28
13497;BMP180;6820;49.374;8.452;2023-08-06T11:25:53;99663.81;;;24.32
13497;BMP180;6820;49.374;8.452;2023-08-06T11:29:55;99662.88;;;24.46
13497;BMP180;6820;49.374;8.452;2023-08-06T11:33:56;99671.41;;;24.62
13497;BMP180;6820;49.374;8.452;2023-08-06T11:37:58;99682.56;;;24.73
13497;BMP180;6820;49.374;8.452;2023-08-06T11:42:05;99689.47;;;24.79
13497;BMP180;6820;49.374;8.452;2023-08-06T11:46:07;99696.38;;;24.85
13497;BMP180;6820;49.374;8.452;2023-08-06T11:50:21;99698.09;;;24.77
13497;BMP180;6820;49.374;8.452;2023-08-06T11:54:32;99715.44;;;24.66
13497;BMP180;6820;49.374;8.452;2023-08-06T11:58:41;99715.47;;;24.62
13497;BMP180;6820;49.374;8.452;2023-08-06T12:02:44;99724.97;;;24.60
13497;BMP180;6820;49.374;8.452;2023-08-06T12:06:46;99720.69;;;24.51
13497;BMP180;6820;49.374;8.452;2023-08-06T12:10:47;99726.78;;;24.46
13497;BMP180;6820;49.374;8.452;2023-08-06T12:14:49;99738.00;;;24.44
13497;BMP180;6820;49.374;8.452;2023-08-06T12:18:51;99758.78;;;24.35
13497;BMP180;6820;49.374;8.452;2023-08-06T12:22:52;99747.56;;;24.31
13497;BMP180;6820;49.374;8.452;2023-08-06T12:26:54;99745.81;;;24.38
13497;BMP180;6820;49.374;8.452;2023-08-06T12:30:59;99749.25;;;24.47
13497;BMP180;6820;49.374;8.452;2023-08-06T12:35:01;99772.56;;;24.40
13497;BMP180;6820;49.374;8.452;2023-08-06T12:39:02;99781.19;;;24.39
13497;BMP180;6820;49.374;8.452;2023-08-06T12:43:04;99795.03;;;24.32
13497;BMP180;6820;49.374;8.452;2023-08-06T12:47:09;99797.66;;;24.26
13497;BMP180;6820;49.374;8.452;2023-08-06T12:51:11;99780.38;;;24.29
13497;BMP180;6820;49.374;8.452;2023-08-06T12:55:12;99784.63;;;24.48
13497;BMP180;6820;49.374;8.452;2023-08-06T12:59:15;99788.03;;;24.60
13497;BMP180;6820;49.374;8.452;2023-08-06T13:03:17;99805.22;;;24.77
13497;BMP180;6820;49.374;8.452;2023-08-06T13:07:19;99808.63;;;24.84
13497;BMP180;6820;49.374;8.452;2023-08-06T13:11:20;99816.47;;;24.87
13497;BMP180;6820;49.374;8.452;2023-08-06T13:15:22;99825.94;;;24.80
13497;BMP180;6820;49.374;8.452;2023-08-06T13:19:24;99823.44;;;24.61
13497;BMP180;6820;49.374;8.452;2023-08-06T13:23:25;99834.72;;;24.50
13497;BMP180;6820;49.374;8.452;2023-08-06T13:27:27;99832.13;;;24.43
13497;BMP180;6820;49.374;8.452;2023-08-06T13:31:29;99838.19;;;24.37
13497;BMP180;6820;49.374;8.452;2023-08-06T13:35:30;99844.19;;;24.49
13497;BMP180;6820;49.374;8.452;2023-08-06T13:39:32;99850.25;;;24.47
13497;BMP180;6820;49.374;8.452;2023-08-06T13:43:34;99839.91;;;24.47
13497;BMP180;6820;49.374;8.452;2023-08-06T13:47:35;99843.31;;;24.49
13497;BMP180;6820;49.374;8.452;2023-08-06T13:51:37;99840.72;;;24.59
13497;BMP180;6820;49.374;8.452;2023-08-06T13:55:39;99858.84;;;24.59
13497;BMP180;6820;49.374;8.452;2023-08-06T13:59:41;99866.63;;;24.61
13497;BMP180;6820;49.374;8.452;2023-08-06T14:03:45;99863.16;;;24.57
13497;BMP180;6820;49.374;8.452;2023-08-06T14:07:46;99872.69;;;24.49
13497;BMP180;6820;49.374;8.452;2023-08-06T14:11:48;99877.03;;;24.47
13497;BMP180;6820;49.374;8.452;2023-08-06T14:15:50;99874.44;;;24.40
13497;BMP180;6820;49.374;8.452;2023-08-06T14:19:51;99887.38;;;24.43
13497;BMP180;6820;49.374;8.452;2023-08-06T14:23:53;99889.97;;;24.50
13497;BMP180;6820;49.374;8.452;2023-08-06T14:27:55;99890.81;;;24.54
13497;BMP180;6820;49.374;8.452;2023-08-06T14:31:56;99893.41;;;24.58
13497;BMP180;6820;49.374;8.452;2023-08-06T14:35:58;99898.56;;;24.67
13497;BMP180;6820;49.374;8.452;2023-08-06T14:40:00;99897.66;;;24.77
13497;BMP180;6820;49.374;8.452;2023-08-06T14:44:01;99887.31;;;24.87
13497;BMP180;6820;49.374;8.452;2023-08-06T14:48:03;99894.09;;;25.10
13497;BMP180;6820;49.374;8.452;2023-08-06T14:52:05;99906.19;;;25.17
13497;BMP180;6820;49.374;8.452;2023-08-06T14:56:08;99942.59;;;24.86
13497;BMP180;6820;49.374;8.452;2023-08-06T15:00:10;99940.91;;;23.89
13497;BMP180;6820;49.374;8.452;2023-08-06T15:04:12;99952.81;;;23.30
13497;BMP180;6820;49.374;8.452;2023-08-06T15:08:14;99959.59;;;23.06
13497;BMP180;6820;49.374;8.452;2023-08-06T15:12:15;99958.75;;;23.13
13497;BMP180;6820;49.374;8.452;2023-08-06T15:16:18;99965.72;;;23.28
13497;BMP180;6820;49.374;8.452;2023-08-06T15:20:21;99965.75;;;23.45
13497;BMP180;6820;49.374;8.452;2023-08-06T15:24:24;99973.63;;;23.56
13497;BMP180;6820;49.374;8.452;2023-08-06T15:28:27;99974.50;;;23.72
13497;BMP180;6820;49.374;8.452;2023-08-06T15:32:29;99990.88;;;23.66
13497;BMP180;6820;49.374;8.452;2023-08-06T15:36:34;99999.44;;;23.51
13497;BMP180;6820;49.374;8.452;2023-08-06T15:40:36;99997.56;;;23.20
13497;BMP180;6820;49.374;8.452;2023-08-06T15:44:38;100014.81;;;23.23
13497;BMP180;6820;49.374;8.452;2023-08-06T15:48:40;100013.09;;;23.26
13497;BMP180;6820;49.374;8.452;2023-08-06T15:52:41;100015.72;;;23.30
13497;BMP180;6820;49.374;8.452;2023-08-06T15:56:43;100012.28;;;23.36
13497;BMP180;6820;49.374;8.452;2023-08-06T16:00:45;100020.91;;;23.39
13497;BMP180;6820;49.374;8.452;2023-08-06T16:04:46;100024.34;;;23.32
13497;BMP180;6820;49.374;8.452;2023-08-06T16:08:48;100018.28;;;23.32
13497;BMP180;6820;49.374;8.452;2023-08-06T16:12:50;100021.78;;;23.40
13497;BMP180;6820;49.374;8.452;2023-08-06T16:16:52;100026.94;;;23.40
13497;BMP180;6820;49.374;8.452;2023-08-06T16:20:54;100033.00;;;23.39
13497;BMP180;6820;49.374;8.452;2023-08-06T16:24:55;100041.59;;;23.36
13497;BMP180;6820;49.374;8.452;2023-08-06T16:28:57;100046.75;;;23.33
13497;BMP180;6820;49.374;8.452;2023-08-06T16:32:59;100045.03;;;23.31
13497;BMP180;6820;49.374;8.452;2023-08-06T16:37:01;100056.22;;;23.27
13497;BMP180;6820;49.374;8.452;2023-08-06T16:41:02;100057.94;;;23.29
13497;BMP180;6820;49.374;8.452;2023-08-06T16:45:06;100055.31;;;23.21
13497;BMP180;6820;49.374;8.452;2023-08-06T16:49:07;100067.34;;;23.16
13497;BMP180;6820;49.374;8.452;2023-08-06T16:53:09;100063.03;;;23.16
13497;BMP180;6820;49.374;8.452;2023-08-06T16:57:12;100076.84;;;23.17
13497;BMP180;6820;49.374;8.452;2023-08-06T17:01:13;100073.41;;;23.21
13497;BMP180;6820;49.374;8.452;2023-08-06T17:05:16;100070.84;;;23.22
13497;BMP180;6820;49.374;8.452;2023-08-06T17:09:18;100070.81;;;23.19
13497;BMP180;6820;49.374;8.452;2023-08-06T17:13:19;100061.38;;;23.27
13497;BMP180;6820;49.374;8.452;2023-08-06T17:17:22;100086.38;;;23.28
13497;BMP180;6820;49.374;8.452;2023-08-06T17:21:24;100083.78;;;23.25
13497;BMP180;6820;49.374;8.452;2023-08-06T17:25:26;100085.50;;;23.29
13497;BMP180;6820;49.374;8.452;2023-08-06T17:29:27;100092.38;;;23.20
13497;BMP180;6820;49.374;8.452;2023-08-06T17:33:29;100096.59;;;23.09
13497;BMP180;6820;49.374;8.452;2023-08-06T17:37:31;100103.47;;;23.07
13497;BMP180;6820;49.374;8.452;2023-08-06T17:41:35;100091.44;;;23.09
13497;BMP180;6820;49.374;8.452;2023-08-06T17:45:53;100100.03;;;23.11
13497;BMP180;6820;49.374;8.452;2023-08-06T17:49:55;100098.31;;;23.10
13497;BMP180;6820;49.374;8.452;2023-08-06T17:53:57;100095.69;;;23.02
13497;BMP180;6820;49.374;8.452;2023-08-06T17:57:59;100096.50;;;22.97
13497;BMP180;6820;49.374;8.452;2023-08-06T18:02:00;100100.84;;;22.98
13497;BMP180;6820;49.374;8.452;2023-08-06T18:06:02;100101.63;;;22.91
13497;BMP180;6820;49.374;8.452;2023-08-06T18:10:04;100107.66;;;22.87
13497;BMP180;6820;49.374;8.452;2023-08-06T18:14:06;100105.06;;;22.87
13497;BMP180;6820;49.374;8.452;2023-08-06T18:18:07;100117.94;;;22.83
13497;BMP180;6820;49.374;8.452;2023-08-06T18:22:11;100118.72;;;22.77
13497;BMP180;6820;49.374;8.452;2023-08-06T18:26:12;100119.56;;;22.75
13497;BMP180;6820;49.374;8.452;2023-08-06T18:30:14;100118.69;;;22.71
13497;BMP180;6820;49.374;8.452;2023-08-06T18:34:16;100120.34;;;22.66
13497;BMP180;6820;49.374;8.452;2023-08-06T18:38:17;100120.34;;;22.66
13497;BMP180;6820;49.374;8.452;2023-08-06T18:42:19;100136.63;;;22.60
13497;BMP180;6820;49.374;8.452;2023-08-06T18:46:21;100146.97;;;22.58
13497;BMP180;6820;49.374;8.452;2023-08-06T18:50:23;100149.47;;;22.51
13497;BMP180;6820;49.374;8.452;2023-08-06T18:54:25;100152.00;;;22.45
13497;BMP180;6820;49.374;8.452;2023-08-06T18:58:26;100158.88;;;22.44
13497;BMP180;6820;49.374;8.452;2023-08-06T19:02:28;100163.13;;;22.39
13497;BMP180;6820;49.374;8.452;2023-08-06T19:06:30;100165.66;;;22.35
13497;BMP180;6820;49.374;8.452;2023-08-06T19:10:33;100168.25;;;22.38
13497;BMP180;6820;49.374;8.452;2023-08-06T19:14:35;100174.25;;;22.35
13497;BMP180;6820;49.374;8.452;2023-08-06T19:18:37;100175.13;;;22.36
13497;BMP180;6820;49.374;8.452;2023-08-06T19:22:39;100175.13;;;22.36
13497;BMP180;6820;49.374;8.452;2023-08-06T19:26:40;100176.03;;;22.39
13497;BMP180;6820;49.374;8.452;2023-08-06T19:30:43;100179.44;;;22.34
13497;BMP180;6820;49.374;8.452;2023-08-06T19:34:45;100182.84;;;22.33
13497;BMP180;6820;49.374;8.452;2023-08-06T19:38:46;100176.81;;;22.31
13497;BMP180;6820;49.374;8.452;2023-08-06T19:42:48;100184.50;;;22.27
13497;BMP180;6820;49.374;8.452;2023-08-06T19:46:50;100193.03;;;22.21
13497;BMP180;6820;49.374;8.452;2023-08-06T19:50:52;100198.22;;;22.24
13497;BMP180;6820;49.374;8.452;2023-08-06T19:54:54;100202.47;;;22.19
13497;BMP180;6820;49.374;8.452;2023-08-06T19:58:56;100193.94;;;22.25
13497;BMP180;6820;49.374;8.452;2023-08-06T20:02:58;100181.88;;;22.25
13497;BMP180;6820;49.374;8.452;2023-08-06T20:07:00;100203.38;;;22.21
13497;BMP180;6820;49.374;8.452;2023-08-06T20:11:02;100192.03;;;22.10
13497;BMP180;6820;49.374;8.452;2023-08-06T20:15:04;100192.81;;;22.05
13497;BMP180;6820;49.374;8.452;2023-08-06T20:19:06;100192.81;;;22.06
13497;BMP180;6820;49.374;8.452;2023-08-06T20:23:08;100202.16;;;21.98
13497;BMP180;6820;49.374;8.452;2023-08-06T20:27:09;100216.84;;;22.02
13497;BMP180;6820;49.374;8.452;2023-08-06T20:31:11;100202.09;;;21.91
13497;BMP180;6820;49.374;8.452;2023-08-06T20:35:13;100208.81;;;21.82
13497;BMP180;6820;49.374;8.452;2023-08-06T20:39:14;100208.78;;;21.79
13497;BMP180;6820;49.374;8.452;2023-08-06T20:43:16;100217.28;;;21.70
13497;BMP180;6820;49.374;8.452;2023-08-06T20:47:19;100215.47;;;21.67
13497;BMP180;6820;49.374;8.452;2023-08-06T20:51:20;100221.47;;;21.64
13497;BMP180;6820;49.374;8.452;2023-08-06T20:55:26;100228.25;;;21.58
13497;BMP180;6820;49.374;8.452;2023-08-06T20:59:28;100222.97;;;21.49
13497;BMP180;6820;49.374;8.452;2023-08-06T21:03:30;100227.31;;;21.51
13497;BMP180;6820;49.374;8.452;2023-08-06T21:07:32;100230.72;;;21.50
13497;BMP180;6820;49.374;8.452;2023-08-06T21:11:34;100233.19;;;21.44
13497;BMP180;6820;49.374;8.452;2023-08-06T21:15:36;100247.81;;;21.44
13497;BMP180;6820;49.374;8.452;2023-08-06T21:19:37;100248.63;;;21.41
13497;BMP180;6820;49.374;8.452;2023-08-06T21:23:39;100254.56;;;21.38
13497;BMP180;6820;49.374;8.452;2023-08-06T21:27:42;100248.66;;;21.44
13497;BMP180;6820;49.374;8.452;2023-08-06T21:31:48;100256.41;;;21.44
13497;BMP180;6820;49.374;8.452;2023-08-06T21:35:51;100263.25;;;21.41
13497;BMP180;6820;49.374;8.452;2023-08-06T21:39:52;100274.53;;;21.49
13497;BMP180;6820;49.374;8.452;2023-08-06T21:43:54;100272.81;;;21.51
13497;BMP180;6820;49.374;8.452;2023-08-06T21:47:56;100276.25;;;21.48
13497;BMP180;6820;49.374;8.452;2023-08-06T21:51:58;100282.22;;;21.46
13497;BMP180;6820;49.374;8.452;2023-08-06T21:56:01;100285.53;;;21.39
13497;BMP180;6820;49.374;8.452;2023-08-06T22:00:07;100284.63;;;21.37
13497;BMP180;6820;49.374;8.452;2023-08-06T22:04:09;100292.38;;;21.37
13497;BMP180;6820;49.374;8.452;2023-08-06T22:08:11;100289.78;;;21.37
13497;BMP180;6820;49.374;8.452;2023-08-06T22:12:12;100289.75;;;21.34
13497;BMP180;6820;49.374;8.452;2023-08-06T22:16:14;100290.69;;;21.39
13497;BMP180;6820;49.374;8.452;2023-08-06T22:20:16;100298.38;;;21.36
13497;BMP180;6820;49.374;8.452;2023-08-06T22:24:17;100304.41;;;21.37
13497;BMP180;6820;49.374;8.452;2023-08-06T22:28:21;100302.69;;;21.37
13497;BMP180;6820;49.374;8.452;2023-08-06T22:32:23;100313.03;;;21.38
13497;BMP180;6820;49.374;8.452;2023-08-06T22:36:24;100312.13;;;21.37
13497;BMP180;6820;49.374;8.452;2023-08-06T22:40:26;100318.97;;;21.35
13497;BMP180;6820;49.374;8.452;2023-08-06T22:44:28;100313.69;;;21.29
13497;BMP180;6820;49.374;8.452;2023-08-06T22:48:30;100321.31;;;21.24
13497;BMP180;6820;49.374;8.452;2023-08-06T22:52:31;100314.38;;;21.20
13497;BMP180;6820;49.374;8.452;2023-08-06T22:56:34;100318.59;;;21.14
13497;BMP180;6820;49.374;8.452;2023-08-06T23:00:36;100335.72;;;21.12
13497;BMP180;6820;49.374;8.452;2023-08-06T23:04:37;100330.47;;;21.07
13497;BMP180;6820;49.374;8.452;2023-08-06T23:08:40;100341.63;;;21.08
13497;BMP180;6820;49.374;8.452;2023-08-06T23:12:41;100333.84;;;21.05
13497;BMP180;6820;49.374;8.452;2023-08-06T23:16:43;100339.16;;;21.12
13497;BMP180;6820;49.374;8.452;2023-08-06T23:20:45;100345.13;;;21.10
13497;BMP180;6820;49.374;8.452;2023-08-06T23:24:46;100345.97;;;21.09
13497;BMP180;6820;49.374;8.452;2023-08-06T23:28:49;100354.50;;;21.07
13497;BMP180;6820;49.374;8.452;2023-08-06T23:32:52;100357.00;;;21.02